Time;durP1;ratioP1;P1;durP2;ratioP2;P2;SDS_P1;SDS_P2;PMS_P1;PMS_P2;Temp;Humidity;BMP_temperature;BMP_pressure;BME280_temperature;BME280_humidity;BME280_pressure;Samples;Min_cycle;Max_cycle;Signal;HPM_P1;HPM_P2
2021/04/22 00:02:10;;;;;;;3.65;3.38;;;31.20;91.90;;;;;;4996410;28;20339;-56
2021/04/22 00:04:40;;;;;;;4.13;3.80;;;31.30;91.90;;;;;;4996698;28;20871;-55
2021/04/22 00:07:10;;;;;;;4.13;3.83;;;31.30;91.90;;;;;;4996561;28;20251;-56
2021/04/22 00:09:44;;;;;;;3.90;3.60;;;31.40;92.00;;;;;;4996370;28;20557;-52
2021/04/22 00:12:15;;;;;;;4.82;3.65;;;31.40;92.00;;;;;;4988284;28;20211;-56
2021/04/22 00:14:46;;;;;;;3.85;3.45;;;31.40;92.00;;;;;;4997100;28;20566;-55
2021/04/22 00:17:17;;;;;;;3.83;3.53;;;31.50;92.50;;;;;;4996698;28;20581;-56
2021/04/22 00:19:48;;;;;;;4.53;3.78;;;31.50;92.10;;;;;;4997019;28;20258;-54
2021/04/22 00:22:18;;;;;;;3.67;3.38;;;31.50;92.20;;;;;;4996609;28;20232;-52
2021/04/22 00:24:49;;;;;;;5.63;3.97;;;31.60;92.30;;;;;;4996535;28;20203;-56
2021/04/22 00:27:20;;;;;;;4.63;3.75;;;31.60;92.20;;;;;;4996474;28;20275;-55
2021/04/22 00:29:52;;;;;;;4.00;3.50;;;31.70;92.40;;;;;;4996289;28;20235;-51
2021/04/22 00:32:22;;;;;;;4.53;4.07;;;31.70;92.30;;;;;;4994557;28;20212;-53
2021/04/22 00:34:52;;;;;;;4.25;3.85;;;31.80;92.40;;;;;;4996941;28;20204;-55
2021/04/22 00:37:23;;;;;;;4.45;4.05;;;31.90;92.40;;;;;;4996646;28;20224;-52
2021/04/22 00:39:53;;;;;;;4.05;3.63;;;32.00;92.50;;;;;;4996143;28;20242;-52
2021/04/22 00:42:23;;;;;;;3.60;3.30;;;32.00;92.50;;;;;;4995727;28;20254;-56
2021/04/22 00:44:55;;;;;;;3.90;3.38;;;32.10;92.50;;;;;;4995865;28;20202;-55
2021/04/22 00:47:25;;;;;;;4.05;3.50;;;32.20;92.40;;;;;;4997359;28;20260;-51
2021/04/22 00:49:56;;;;;;;4.20;3.55;;;32.30;92.40;;;;;;4996325;28;20573;-54
2021/04/22 00:52:27;;;;;;;3.60;3.30;;;32.40;92.40;;;;;;4996555;28;20247;-54
2021/04/22 00:54:57;;;;;;;3.20;2.90;;;32.40;92.30;;;;;;4996271;28;20200;-55
2021/04/22 00:57:27;;;;;;;3.40;3.10;;;32.50;92.10;;;;;;4996395;28;20216;-54
2021/04/22 00:59:59;;;;;;;4.05;3.47;;;32.60;92.00;;;;;;4997415;28;20211;-57
2021/04/22 01:02:30;;;;;;;3.22;2.92;;;32.70;92.00;;;;;;4997034;28;20247;-53
2021/04/22 01:05:01;;;;;;;3.40;3.10;;;32.80;91.90;;;;;;4996007;28;20208;-56
2021/04/22 01:07:33;;;;;;;4.22;3.35;;;32.90;91.70;;;;;;4986146;28;20224;-54
2021/04/22 01:10:04;;;;;;;4.20;3.05;;;33.00;91.30;;;;;;4995991;28;20204;-54
2021/04/22 01:12:35;;;;;;;2.95;2.65;;;33.00;91.10;;;;;;4996195;28;20619;-56
2021/04/22 01:15:08;;;;;;;3.53;2.83;;;33.10;91.00;;;;;;4994823;28;20291;-56
2021/04/22 01:17:39;;;;;;;3.15;2.75;;;33.20;91.00;;;;;;4995869;28;20223;-51
2021/04/22 01:20:10;;;;;;;2.97;2.67;;;33.30;90.60;;;;;;4996272;28;20821;-56
2021/04/22 01:22:43;;;;;;;2.65;2.45;;;33.30;90.60;;;;;;4996006;28;20645;-57
2021/04/22 01:25:15;;;;;;;2.58;2.38;;;33.40;90.40;;;;;;4995561;28;20271;-55
2021/04/22 01:27:46;;;;;;;3.20;2.40;;;33.40;90.30;;;;;;4995741;28;20637;-56
2021/04/22 01:30:18;;;;;;;2.20;2.00;;;33.50;90.20;;;;;;4995599;28;20675;-55
2021/04/22 01:32:48;;;;;;;3.60;3.15;;;33.50;89.70;;;;;;4995515;28;20200;-56
2021/04/22 01:35:21;;;;;;;2.50;2.30;;;33.50;88.20;;;;;;4994562;28;20216;-52
2021/04/22 01:37:52;;;;;;;4.55;2.40;;;33.60;88.60;;;;;;4984044;28;20224;-54
2021/04/22 01:40:23;;;;;;;2.85;2.58;;;33.60;88.60;;;;;;4983416;28;20236;-53
2021/04/22 01:42:55;;;;;;;3.22;2.00;;;33.70;87.50;;;;;;4992269;28;20299;-56
2021/04/22 01:45:26;;;;;;;2.33;2.13;;;33.70;87.50;;;;;;4992581;28;20286;-56
2021/04/22 01:48:01;;;;;;;2.17;2.00;;;33.80;87.40;;;;;;4992270;28;20196;-54
2021/04/22 01:50:32;;;;;;;2.35;2.15;;;33.80;87.00;;;;;;4992916;28;20258;-55
2021/04/22 01:53:05;;;;;;;2.70;2.20;;;33.80;86.50;;;;;;4992635;28;20220;-56
2021/04/22 01:55:36;;;;;;;2.20;1.80;;;33.90;86.80;;;;;;4993172;28;20652;-56
2021/04/22 01:58:09;;;;;;;2.92;1.95;;;33.90;87.10;;;;;;4992280;28;20270;-52
2021/04/22 02:00:43;;;;;;;2.30;2.10;;;34.00;86.90;;;;;;4992463;28;20296;-54
2021/04/22 02:03:17;;;;;;;2.25;2.10;;;34.00;86.30;;;;;;4992568;28;20334;-54
2021/04/22 02:05:47;;;;;;;2.10;1.95;;;34.00;86.10;;;;;;4993208;28;20295;-54
2021/04/22 02:08:19;;;;;;;2.50;1.88;;;34.10;85.80;;;;;;4992353;28;20264;-56
2021/04/22 02:10:50;;;;;;;2.20;2.05;;;34.20;86.00;;;;;;4993069;28;20320;-56
2021/04/22 02:13:21;;;;;;;2.47;2.05;;;34.20;85.70;;;;;;4992791;28;20206;-54
2021/04/22 02:15:51;;;;;;;4.25;2.10;;;34.30;86.20;;;;;;4993437;28;20208;-54
2021/04/22 02:18:22;;;;;;;2.42;2.22;;;34.30;86.60;;;;;;4992561;28;20282;-55
2021/04/22 02:20:53;;;;;;;2.80;2.50;;;34.40;86.40;;;;;;4996016;28;20218;-55
2021/04/22 02:23:26;;;;;;;2.35;2.05;;;34.50;86.00;;;;;;4997074;28;20230;-52
2021/04/22 02:25:57;;;;;;;2.95;2.67;;;34.70;85.30;;;;;;4997241;28;20770;-53
2021/04/22 02:28:28;;;;;;;2.88;2.67;;;34.70;84.20;;;;;;4998872;28;20279;-54
2021/04/22 02:30:59;;;;;;;2.72;2.50;;;34.80;83.00;;;;;;4997189;28;20247;-54
2021/04/22 02:33:30;;;;;;;2.47;2.28;;;34.90;82.00;;;;;;4997014;28;20640;-54
2021/04/22 02:36:00;;;;;;;2.50;2.30;;;34.90;82.50;;;;;;4997304;28;20207;-53
2021/04/22 02:38:32;;;;;;;2.50;2.30;;;35.00;82.80;;;;;;4996499;28;20235;-55
2021/04/22 02:41:03;;;;;;;4.45;2.47;;;35.10;82.30;;;;;;4995718;28;20291;-51
2021/04/22 02:43:34;;;;;;;3.83;2.65;;;35.20;81.90;;;;;;4996186;28;20207;-56
2021/04/22 02:46:13;;;;;;;3.22;2.40;;;35.20;81.50;;;;;;4996378;28;20204;-54
2021/04/22 02:48:47;;;;;;;2.50;2.30;;;35.30;80.30;;;;;;4996505;28;20232;-54
2021/04/22 02:51:17;;;;;;;2.50;2.30;;;35.40;80.50;;;;;;4995516;28;20212;-54
2021/04/22 02:53:53;;;;;;;2.88;2.40;;;35.50;80.40;;;;;;4996776;28;20728;-54
2021/04/22 02:56:23;;;;;;;3.40;3.10;;;35.50;80.20;;;;;;4989318;28;20192;-56
2021/04/22 02:58:53;;;;;;;3.25;2.95;;;35.60;79.50;;;;;;4995565;28;20216;-53
2021/04/22 03:01:24;;;;;;;2.40;2.20;;;35.60;79.30;;;;;;4994463;28;20243;-52
2021/04/22 03:03:56;;;;;;;2.80;2.58;;;35.70;79.10;;;;;;4995594;28;20736;-52
2021/04/22 03:06:29;;;;;;;3.00;2.80;;;35.70;76.60;;;;;;4995452;28;20203;-54
2021/04/22 03:09:01;;;;;;;3.70;3.10;;;35.70;75.40;;;;;;4995757;28;20267;-56
2021/04/22 03:11:32;;;;;;;5.57;3.15;;;35.70;71.50;;;;;;4996607;28;20215;-55
2021/04/22 03:14:02;;;;;;;3.30;3.00;;;35.60;68.80;;;;;;4995316;28;20568;-53
2021/04/22 03:16:33;;;;;;;4.50;2.90;;;35.40;69.20;;;;;;4994163;28;20247;-50
2021/04/22 03:19:07;;;;;;;2.78;2.58;;;35.20;70.00;;;;;;4996539;28;20904;-52
2021/04/22 03:21:38;;;;;;;2.60;2.40;;;34.90;69.10;;;;;;4996576;28;20318;-53
2021/04/22 03:24:11;;;;;;;2.78;2.53;;;34.70;70.30;;;;;;4994689;28;20208;-55
2021/04/22 03:26:43;;;;;;;4.43;1.92;;;34.50;70.30;;;;;;4995276;28;20223;-54
2021/04/22 03:29:16;;;;;;;3.70;2.00;;;34.30;71.30;;;;;;4995554;28;20236;-54
2021/04/22 03:31:47;;;;;;;2.10;1.90;;;34.20;71.00;;;;;;4995011;28;20208;-50
2021/04/22 03:34:18;;;;;;;3.55;2.38;;;34.10;70.60;;;;;;4995316;28;20314;-52
2021/04/22 03:36:52;;;;;;;2.25;2.05;;;33.90;71.70;;;;;;4992023;28;20235;-55
2021/04/22 03:39:26;;;;;;;2.38;1.85;;;33.80;71.70;;;;;;4995488;28;20201;-52
2021/04/22 03:42:04;;;;;;;1.90;1.80;;;33.80;72.30;;;;;;4992257;28;20200;-54
2021/04/22 03:44:35;;;;;;;2.03;1.70;;;33.70;72.80;;;;;;4962121;28;20211;-53
2021/04/22 03:47:05;;;;;;;1.73;1.63;;;33.80;73.30;;;;;;4994383;28;20287;-52
2021/04/22 03:49:36;;;;;;;1.60;1.50;;;33.70;72.50;;;;;;4994619;28;20208;-54
2021/04/22 03:52:07;;;;;;;2.42;1.63;;;33.80;71.40;;;;;;4995497;28;20240;-54
2021/04/22 03:54:42;;;;;;;3.33;1.77;;;33.80;71.40;;;;;;4995103;28;20322;-52
2021/04/22 03:57:13;;;;;;;1.90;1.67;;;33.90;70.70;;;;;;4994705;28;20215;-54
2021/04/22 03:59:44;;;;;;;2.40;2.20;;;33.90;72.70;;;;;;4994706;28;20238;-55
2021/04/22 04:02:19;;;;;;;3.47;3.17;;;34.00;74.60;;;;;;4994197;28;20958;-54
2021/04/22 04:04:50;;;;;;;2.58;2.38;;;34.10;76.20;;;;;;4995104;28;20223;-53
2021/04/22 04:07:20;;;;;;;2.40;2.20;;;34.10;75.70;;;;;;4993961;28;20207;-55
2021/04/22 04:09:54;;;;;;;2.53;2.33;;;34.10;76.20;;;;;;4993652;28;20216;-53
2021/04/22 04:12:28;;;;;;;3.00;2.70;;;34.10;75.70;;;;;;4988465;28;20203;-55
2021/04/22 04:14:59;;;;;;;2.30;2.10;;;34.10;76.50;;;;;;4995016;28;20379;-54
2021/04/22 04:17:29;;;;;;;2.00;1.90;;;34.10;76.10;;;;;;4994842;28;20515;-54
2021/04/22 04:20:14;;;;;;;2.40;2.17;;;34.20;76.30;;;;;;4994804;28;20691;-53
2021/04/22 04:22:48;;;;;;;2.63;2.25;;;34.20;74.70;;;;;;4990145;28;20200;-55
2021/04/22 04:25:22;;;;;;;2.25;2.05;;;34.20;74.30;;;;;;4995273;28;20275;-54
2021/04/22 04:28:03;;;;;;;3.33;2.45;;;34.30;74.30;;;;;;4994342;28;20232;-55
2021/04/22 04:30:34;;;;;;;2.97;2.42;;;34.30;73.90;;;;;;4994055;28;20206;-53
2021/04/22 04:33:07;;;;;;;3.10;2.40;;;34.40;73.40;;;;;;4993693;28;20235;-54
2021/04/22 04:35:41;;;;;;;2.30;2.20;;;34.50;74.40;;;;;;4996115;28;20222;-61
2021/04/22 04:38:16;;;;;;;2.72;2.53;;;34.50;75.40;;;;;;4993962;28;20244;-55
2021/04/22 04:40:48;;;;;;;2.70;2.50;;;34.60;76.50;;;;;;4995387;28;20647;-54
2021/04/22 04:43:19;;;;;;;4.80;4.40;;;34.70;77.00;;;;;;4994487;28;20296;-52
2021/04/22 04:45:49;;;;;;;3.20;2.90;;;34.70;77.50;;;;;;4995020;28;20231;-52
2021/04/22 04:48:20;;;;;;;5.65;3.30;;;34.80;77.90;;;;;;4995223;28;20227;-56
2021/04/22 04:50:53;;;;;;;3.25;2.97;;;34.90;77.60;;;;;;4995125;28;20232;-56
2021/04/22 04:53:23;;;;;;;3.55;3.20;;;35.00;77.70;;;;;;4995376;28;20204;-56
2021/04/22 04:55:55;;;;;;;3.22;3.03;;;35.10;77.30;;;;;;4992191;28;20210;-53
2021/04/22 04:58:37;;;;;;;3.38;3.08;;;35.10;76.40;;;;;;4995166;28;20726;-55
2021/04/22 05:01:08;;;;;;;2.65;2.45;;;35.20;75.60;;;;;;4993898;28;20255;-56
2021/04/22 05:03:46;;;;;;;6.20;4.03;;;35.30;76.70;;;;;;4995135;28;20327;-55
2021/04/22 05:06:20;;;;;;;4.93;3.53;;;35.30;74.70;;;;;;4993831;28;20203;-55
2021/04/22 05:08:57;;;;;;;3.35;3.05;;;35.40;75.40;;;;;;4994305;28;20223;-55
2021/04/22 05:11:32;;;;;;;3.03;2.72;;;35.40;74.80;;;;;;4997263;28;20209;-56
2021/04/22 05:14:04;;;;;;;3.15;2.85;;;35.40;75.10;;;;;;4995543;28;20199;-55
2021/04/22 05:16:39;;;;;;;2.65;2.45;;;35.40;74.10;;;;;;4993867;28;20250;-53
2021/04/22 05:19:14;;;;;;;3.20;2.95;;;35.40;73.70;;;;;;4994201;28;20227;-56
2021/04/22 05:21:54;;;;;;;3.15;2.83;;;35.40;73.80;;;;;;4993364;28;20202;-54
2021/04/22 05:24:25;;;;;;;3.50;3.08;;;35.40;73.60;;;;;;4993053;28;20223;-53
2021/04/22 05:26:57;;;;;;;4.05;3.30;;;35.30;73.50;;;;;;4994596;28;20204;-56
2021/04/22 05:29:31;;;;;;;2.97;2.78;;;35.30;73.40;;;;;;4994859;28;20227;-55
2021/04/22 05:32:04;;;;;;;2.63;2.42;;;35.30;73.70;;;;;;4995003;28;20207;-53
2021/04/22 05:34:37;;;;;;;4.57;3.10;;;35.30;73.40;;;;;;4993683;28;20197;-55
2021/04/22 05:37:18;;;;;;;;;;;;;;;;;;;;;
2021/04/22 05:39:49;;;;;;;2.97;2.78;;;35.20;73.00;;;;;;4992150;28;20231;-55
2021/04/22 05:42:22;;;;;;;2.50;2.30;;;35.20;73.60;;;;;;4995108;28;20219;-53
2021/04/22 05:44:52;;;;;;;3.97;3.22;;;35.20;73.80;;;;;;4993654;28;20223;-54
2021/04/22 05:47:23;;;;;;;3.10;2.80;;;35.30;73.80;;;;;;4994287;28;20303;-52
2021/04/22 05:49:54;;;;;;;2.95;2.75;;;35.30;74.60;;;;;;4993646;28;20210;-55
2021/04/22 05:52:27;;;;;;;2.88;2.67;;;35.20;75.30;;;;;;4993456;28;20267;-55
2021/04/22 05:54:57;;;;;;;3.55;2.78;;;35.20;75.60;;;;;;4993717;28;20870;-52
2021/04/22 05:57:29;;;;;;;2.70;2.50;;;35.30;75.80;;;;;;4993888;28;20255;-52
2021/04/22 05:59:59;;;;;;;2.90;2.70;;;35.30;75.60;;;;;;4992797;28;20665;-50
2021/04/22 06:02:30;;;;;;;3.40;3.10;;;35.30;75.20;;;;;;4993695;28;20248;-52
2021/04/22 06:05:01;;;;;;;3.00;2.80;;;35.30;75.00;;;;;;4994948;28;20232;-51
2021/04/22 06:07:32;;;;;;;3.33;2.70;;;35.30;75.30;;;;;;4993286;28;20726;-50
2021/04/22 06:10:06;;;;;;;3.50;3.20;;;35.30;75.80;;;;;;4992191;28;20208;-50
2021/04/22 06:12:38;;;;;;;3.20;2.90;;;35.30;75.90;;;;;;4995737;28;20204;-54
2021/04/22 06:15:09;;;;;;;3.47;3.17;;;35.30;76.10;;;;;;5000703;28;20243;-53
2021/04/22 06:17:40;;;;;;;3.50;3.20;;;35.30;76.20;;;;;;4993186;28;20710;-52
2021/04/22 06:20:12;;;;;;;5.50;2.97;;;35.20;76.30;;;;;;4993251;28;20206;-51
2021/04/22 06:22:43;;;;;;;3.47;3.17;;;35.20;76.40;;;;;;4993752;28;20211;-51
2021/04/22 06:25:14;;;;;;;3.33;3.10;;;35.20;76.60;;;;;;4993963;28;20656;-51
2021/04/22 06:27:46;;;;;;;3.30;2.85;;;35.20;76.80;;;;;;4994013;28;20917;-51
2021/04/22 06:30:18;;;;;;;3.58;3.28;;;35.10;76.80;;;;;;4993261;28;20208;-52
2021/04/22 06:32:49;;;;;;;3.80;3.50;;;35.10;76.60;;;;;;4992033;28;20212;-52
2021/04/22 06:35:19;;;;;;;3.58;3.20;;;35.00;76.40;;;;;;4992469;28;20208;-51
2021/04/22 06:37:50;;;;;;;3.42;3.13;;;35.00;76.40;;;;;;4991953;28;20222;-51
2021/04/22 06:40:21;;;;;;;4.03;3.67;;;35.00;76.30;;;;;;4991924;28;20236;-50
2021/04/22 06:42:54;;;;;;;3.35;3.03;;;34.90;75.50;;;;;;4991403;28;20228;-53
2021/04/22 06:45:25;;;;;;;4.28;3.80;;;34.90;74.90;;;;;;4981718;28;20223;-54
2021/04/22 06:47:55;;;;;;;3.50;3.13;;;34.80;74.60;;;;;;4992922;28;20648;-52
2021/04/22 06:50:26;;;;;;;3.55;3.13;;;34.80;74.60;;;;;;4991862;28;20212;-55
2021/04/22 06:52:57;;;;;;;5.05;3.50;;;34.70;74.70;;;;;;4949988;29;20217;-53
2021/04/22 06:55:28;;;;;;;4.18;3.78;;;34.70;74.60;;;;;;4949937;29;20296;-49
2021/04/22 06:58:00;;;;;;;5.40;3.70;;;34.60;74.40;;;;;;4950350;29;20894;-54
2021/04/22 07:00:34;;;;;;;3.58;3.28;;;34.50;74.20;;;;;;4950425;29;20241;-53
2021/04/22 07:03:05;;;;;;;3.33;3.05;;;34.40;74.00;;;;;;4949848;29;20244;-53
2021/04/22 07:05:36;;;;;;;3.75;3.17;;;34.40;74.20;;;;;;4950295;28;20201;-55
2021/04/22 07:08:07;;;;;;;3.22;2.90;;;34.30;74.20;;;;;;4954612;29;20209;-54
2021/04/22 07:10:38;;;;;;;3.10;2.90;;;34.30;74.30;;;;;;4953946;29;20368;-54
2021/04/22 07:13:09;;;;;;;3.30;3.00;;;34.20;74.50;;;;;;4953108;29;20220;-55
2021/04/22 07:15:40;;;;;;;3.42;3.13;;;34.20;74.70;;;;;;4952654;29;20287;-55
2021/04/22 07:18:11;;;;;;;3.70;3.40;;;34.20;74.90;;;;;;4954274;29;20332;-51
2021/04/22 07:20:44;;;;;;;3.75;3.45;;;34.10;75.00;;;;;;4915824;29;20218;-52
2021/04/22 07:23:18;;;;;;;3.90;3.58;;;34.00;75.20;;;;;;4927351;28;20213;-52
2021/04/22 07:25:52;;;;;;;4.13;3.72;;;34.00;75.10;;;;;;4972835;28;20242;-54
2021/04/22 07:28:25;;;;;;;3.55;3.25;;;34.00;75.30;;;;;;4972974;28;20200;-55
2021/04/22 07:31:00;;;;;;;4.05;3.65;;;34.00;75.50;;;;;;4973119;28;20215;-54
2021/04/22 07:33:31;;;;;;;4.20;3.80;;;33.90;75.60;;;;;;4972855;28;20231;-55
2021/04/22 07:36:01;;;;;;;4.40;4.00;;;33.90;75.80;;;;;;4972216;28;20209;-54
2021/04/22 07:38:32;;;;;;;4.70;4.38;;;33.80;76.00;;;;;;4972209;28;20244;-55
2021/04/22 07:41:03;;;;;;;5.20;4.70;;;33.80;76.30;;;;;;4972624;28;20271;-55
2021/04/22 07:43:35;;;;;;;4.85;4.47;;;33.80;76.60;;;;;;4972346;28;21000;-53
2021/04/22 07:46:05;;;;;;;5.40;4.78;;;33.70;76.80;;;;;;4972301;28;20244;-54
2021/04/22 07:48:36;;;;;;;4.28;3.92;;;33.70;76.90;;;;;;4971474;28;20205;-53
2021/04/22 07:51:06;;;;;;;5.15;4.68;;;33.70;77.10;;;;;;4981652;28;20216;-54
2021/04/22 07:53:37;;;;;;;5.25;4.85;;;33.70;77.30;;;;;;4995343;28;20311;-52
2021/04/22 07:56:08;;;;;;;5.43;4.93;;;33.70;77.60;;;;;;4994863;28;20200;-55
2021/04/22 07:58:39;;;;;;;5.25;4.85;;;33.70;77.90;;;;;;4993259;28;20224;-55
2021/04/22 08:01:11;;;;;;;5.18;4.70;;;33.70;78.10;;;;;;4992729;28;20704;-54
2021/04/22 08:03:41;;;;;;;5.13;4.68;;;33.70;78.30;;;;;;4993911;28;20279;-51
2021/04/22 08:06:13;;;;;;;4.75;4.35;;;33.70;78.40;;;;;;4988440;28;20334;-55
2021/04/22 08:08:44;;;;;;;4.68;4.35;;;33.70;78.40;;;;;;4994538;28;20200;-54
2021/04/22 08:11:14;;;;;;;4.85;4.45;;;33.70;78.70;;;;;;4995681;28;20196;-54
2021/04/22 08:13:46;;;;;;;4.82;4.43;;;33.70;78.90;;;;;;4992688;28;20211;-50
2021/04/22 08:16:17;;;;;;;5.05;4.68;;;33.70;79.20;;;;;;4992783;28;20640;-55
2021/04/22 08:18:48;;;;;;;4.53;4.13;;;33.70;79.40;;;;;;4992354;28;20267;-54
2021/04/22 08:21:19;;;;;;;4.88;4.47;;;33.70;79.40;;;;;;4993655;28;20308;-53
2021/04/22 08:23:50;;;;;;;4.47;4.07;;;33.70;79.60;;;;;;4983494;28;20719;-48
2021/04/22 08:26:22;;;;;;;4.10;3.80;;;33.70;79.60;;;;;;4992863;28;20207;-52
2021/04/22 08:28:54;;;;;;;4.38;3.97;;;33.70;79.60;;;;;;4993260;28;20192;-52
2021/04/22 08:31:25;;;;;;;5.57;4.10;;;33.80;79.80;;;;;;4991960;28;20239;-54
2021/04/22 08:33:58;;;;;;;4.75;4.35;;;33.80;79.80;;;;;;4992953;28;20212;-53
2021/04/22 08:36:29;;;;;;;4.55;4.10;;;33.80;79.70;;;;;;4993914;28;20211;-49
2021/04/22 08:39:02;;;;;;;4.57;4.20;;;33.80;79.70;;;;;;4995086;28;20696;-54
2021/04/22 08:41:33;;;;;;;4.07;3.65;;;33.90;79.60;;;;;;4994399;28;20306;-54
2021/04/22 08:44:05;;;;;;;3.72;3.42;;;33.90;79.10;;;;;;4993856;28;20242;-52
2021/04/22 08:46:38;;;;;;;4.32;3.92;;;33.90;78.90;;;;;;4994580;28;20270;-54
2021/04/22 08:49:09;;;;;;;4.28;3.80;;;34.00;78.80;;;;;;4993609;28;20193;-54
2021/04/22 08:51:40;;;;;;;4.38;3.97;;;33.90;78.60;;;;;;4994499;28;20205;-52
2021/04/22 08:54:11;;;;;;;4.00;3.70;;;34.00;78.30;;;;;;4993143;28;20246;-51
2021/04/22 08:56:44;;;;;;;4.97;3.80;;;34.00;78.20;;;;;;4983487;28;20204;-52
2021/04/22 08:59:17;;;;;;;6.40;3.85;;;34.00;78.50;;;;;;4994482;28;20212;-53
2021/04/22 09:01:49;;;;;;;5.75;3.42;;;34.00;78.70;;;;;;4992989;28;20232;-53
2021/04/22 09:04:19;;;;;;;3.90;3.60;;;34.00;78.70;;;;;;4992763;28;20612;-55
2021/04/22 09:06:49;;;;;;;3.80;3.40;;;34.00;78.70;;;;;;4993978;28;20235;-55
2021/04/22 09:09:20;;;;;;;3.97;3.67;;;34.00;78.80;;;;;;4993850;28;20227;-53
2021/04/22 09:11:54;;;;;;;3.72;3.42;;;34.00;78.60;;;;;;4993096;28;20192;-52
2021/04/22 09:14:26;;;;;;;4.28;3.88;;;34.00;78.90;;;;;;4993509;28;20425;-52
2021/04/22 09:16:57;;;;;;;6.10;3.72;;;34.10;78.90;;;;;;4994114;28;20744;-54
2021/04/22 09:19:31;;;;;;;5.88;3.97;;;34.10;78.70;;;;;;4994365;28;20224;-53
2021/04/22 09:22:01;;;;;;;3.97;3.53;;;34.10;78.80;;;;;;4994639;28;20513;-55
2021/04/22 09:24:32;;;;;;;4.15;3.75;;;34.10;78.80;;;;;;4994564;28;20245;-54
2021/04/22 09:27:04;;;;;;;4.32;4.03;;;34.10;78.90;;;;;;4993214;28;20299;-52
2021/04/22 09:29:37;;;;;;;4.40;4.00;;;34.10;79.10;;;;;;4993553;28;20200;-52
2021/04/22 09:32:16;;;;;;;4.53;3.78;;;34.20;79.20;;;;;;4993535;28;20278;-54
2021/04/22 09:34:51;;;;;;;5.63;4.25;;;34.20;79.40;;;;;;4993463;28;20480;-52
2021/04/22 09:37:24;;;;;;;4.43;4.03;;;34.20;79.60;;;;;;4993342;28;20210;-54
2021/04/22 09:39:54;;;;;;;5.05;4.00;;;34.20;79.30;;;;;;4994019;28;20283;-51
2021/04/22 09:42:27;;;;;;;4.55;4.15;;;34.20;79.10;;;;;;4994544;28;20212;-51
2021/04/22 09:44:59;;;;;;;4.75;4.35;;;34.20;79.40;;;;;;4994013;28;20211;-52
2021/04/22 09:47:32;;;;;;;4.53;4.13;;;34.30;79.60;;;;;;4955423;28;20384;-54
2021/04/22 09:50:06;;;;;;;7.20;6.22;;;34.30;79.70;;;;;;4909293;29;20226;-50
2021/04/22 09:52:38;;;;;;;6.13;5.63;;;34.30;79.70;;;;;;4910764;29;20215;-52
2021/04/22 09:55:10;;;;;;;5.38;4.88;;;34.30;79.70;;;;;;4911516;29;20214;-55
2021/04/22 09:57:40;;;;;;;4.15;3.80;;;34.40;79.30;;;;;;4901570;29;20246;-51
2021/04/22 10:00:14;;;;;;;5.60;4.10;;;34.40;79.30;;;;;;4898337;29;20215;-53
2021/04/22 10:02:45;;;;;;;4.25;3.90;;;34.40;79.30;;;;;;4910041;29;20239;-54
2021/04/22 10:05:21;;;;;;;5.13;4.32;;;34.50;79.20;;;;;;4910000;29;20218;-55
2021/04/22 10:07:51;;;;;;;4.00;3.70;;;34.50;78.90;;;;;;4907546;29;20211;-55
2021/04/22 10:10:23;;;;;;;3.60;3.30;;;34.50;78.80;;;;;;4899224;29;20273;-55
2021/04/22 10:12:53;;;;;;;3.50;3.22;;;34.60;78.70;;;;;;4897680;29;20704;-55
2021/04/22 10:15:25;;;;;;;3.80;3.50;;;34.60;78.40;;;;;;4873093;29;20805;-53
2021/04/22 10:18:00;;;;;;;3.60;3.30;;;34.70;78.60;;;;;;4884402;29;20227;-52
2021/04/22 10:20:32;;;;;;;4.28;3.88;;;34.70;78.60;;;;;;4918424;29;20296;-55
2021/04/22 10:23:03;;;;;;;4.00;3.70;;;34.80;78.40;;;;;;4931957;29;20217;-54
2021/04/22 10:25:34;;;;;;;4.50;4.10;;;34.80;78.50;;;;;;4939880;29;20360;-51
2021/04/22 10:28:05;;;;;;;5.15;4.30;;;34.80;78.70;;;;;;4937793;29;20799;-55
2021/04/22 10:30:37;;;;;;;5.15;4.70;;;34.90;78.40;;;;;;4946160;29;20221;-51
2021/04/22 10:33:08;;;;;;;4.57;4.18;;;35.00;78.70;;;;;;4937941;29;20693;-52
2021/04/22 10:35:42;;;;;;;5.20;4.70;;;35.10;79.10;;;;;;4945678;29;20209;-50
2021/04/22 10:38:16;;;;;;;5.85;5.28;;;35.20;78.90;;;;;;4933492;29;20214;-52
2021/04/22 10:40:50;;;;;;;6.60;5.45;;;35.40;78.80;;;;;;4935227;29;20213;-51
2021/04/22 10:43:21;;;;;;;6.43;5.07;;;35.60;78.60;;;;;;4935816;29;20199;-49
2021/04/22 10:45:53;;;;;;;5.53;5.03;;;35.80;78.30;;;;;;4951254;28;20613;-52
2021/04/22 10:48:25;;;;;;;6.25;5.07;;;35.90;77.30;;;;;;4994018;28;20193;-52
2021/04/22 10:50:55;;;;;;;4.85;4.45;;;36.10;76.70;;;;;;4994017;28;20302;-52
2021/04/22 10:53:27;;;;;;;7.40;5.03;;;36.20;76.00;;;;;;4994505;28;20196;-54
2021/04/22 10:55:57;;;;;;;5.28;4.28;;;36.20;75.30;;;;;;4998027;28;20192;-52
2021/04/22 10:58:28;;;;;;;5.85;5.25;;;36.20;74.90;;;;;;4995505;28;20307;-51
2021/04/22 11:01:03;;;;;;;8.38;7.43;;;36.10;74.60;;;;;;4992509;28;20239;-50
2021/04/22 11:03:34;;;;;;;17.40;13.95;;;36.10;74.50;;;;;;4991791;28;20246;-50
2021/04/22 11:06:09;;;;;;;18.08;13.68;;;36.00;74.60;;;;;;4995095;28;20612;-53
2021/04/22 11:08:40;;;;;;;13.50;10.85;;;36.00;74.70;;;;;;4997220;28;20300;-49
2021/04/22 11:11:19;;;;;;;9.35;7.95;;;36.00;74.80;;;;;;4995647;28;20259;-52
2021/04/22 11:13:49;;;;;;;8.13;6.65;;;36.00;74.70;;;;;;4995969;28;20210;-51
2021/04/22 11:16:31;;;;;;;7.35;6.57;;;35.90;74.50;;;;;;4996269;28;20207;-51
2021/04/22 11:19:01;;;;;;;8.25;7.40;;;35.90;74.70;;;;;;4996246;28;20222;-53
2021/04/22 11:21:34;;;;;;;10.13;9.02;;;35.80;74.50;;;;;;4994966;28;20228;-50
2021/04/22 11:24:05;;;;;;;13.00;10.82;;;35.70;74.70;;;;;;4996082;28;20247;-50
2021/04/22 11:26:37;;;;;;;11.63;9.90;;;35.60;74.70;;;;;;4995730;28;20287;-52
2021/04/22 11:29:14;;;;;;;11.27;8.82;;;35.50;74.80;;;;;;4995922;28;20219;-53
2021/04/22 11:31:49;;;;;;;8.95;7.72;;;35.30;75.30;;;;;;4994015;28;20206;-53
2021/04/22 11:34:20;;;;;;;8.90;6.75;;;35.20;75.50;;;;;;4995144;28;20664;-52
2021/04/22 11:36:50;;;;;;;7.38;5.30;;;35.10;75.40;;;;;;4995743;28;20216;-54
2021/04/22 11:39:31;;;;;;;5.68;5.18;;;35.00;75.60;;;;;;4996050;28;20287;-53
2021/04/22 11:42:02;;;;;;;10.18;8.60;;;34.80;75.80;;;;;;4995801;28;20207;-53
2021/04/22 11:44:36;;;;;;;10.95;8.45;;;34.70;75.90;;;;;;4994523;28;20219;-53
2021/04/22 11:47:19;;;;;;;8.82;7.05;;;34.70;76.50;;;;;;4994799;28;20204;-52
2021/04/22 11:49:49;;;;;;;9.30;7.10;;;34.50;77.00;;;;;;4994888;28;20192;-53
2021/04/22 11:52:21;;;;;;;12.95;9.88;;;34.40;77.00;;;;;;4993138;28;20224;-54
2021/04/22 11:54:51;;;;;;;19.25;14.73;;;34.40;77.40;;;;;;4994710;28;20246;-52
2021/04/22 11:57:21;;;;;;;17.08;12.02;;;34.20;77.40;;;;;;4994994;28;20288;-52
2021/04/22 11:59:55;;;;;;;11.68;10.05;;;34.10;77.50;;;;;;4996111;28;20308;-55
2021/04/22 12:02:26;;;;;;;24.42;17.80;;;34.10;78.00;;;;;;4998757;28;20243;-55
2021/04/22 12:04:57;;;;;;;41.60;30.15;;;34.00;78.20;;;;;;4998907;28;20210;-56
2021/04/22 12:07:28;;;;;;;47.00;35.58;;;33.90;78.50;;;;;;4956933;29;20214;-54
2021/04/22 12:09:58;;;;;;;49.75;34.92;;;33.80;78.70;;;;;;4954947;29;20201;-55
2021/04/22 12:12:29;;;;;;;38.65;30.58;;;33.80;79.10;;;;;;4957789;29;20729;-55
2021/04/22 12:15:00;;;;;;;41.22;33.58;;;33.70;79.30;;;;;;4957620;29;20225;-51
2021/04/22 12:17:32;;;;;;;40.55;33.05;;;33.70;79.50;;;;;;4956323;29;20386;-53
2021/04/22 12:20:04;;;;;;;34.92;28.23;;;33.60;79.80;;;;;;4956740;29;20221;-56
2021/04/22 12:22:36;;;;;;;29.80;24.45;;;33.60;79.90;;;;;;4956583;29;20205;-55
2021/04/22 12:25:12;;;;;;;27.45;22.77;;;33.50;80.10;;;;;;4955245;29;20225;-55
2021/04/22 12:27:47;;;;;;;30.30;22.88;;;33.50;80.70;;;;;;4955549;29;20216;-55
2021/04/22 12:30:33;;;;;;;24.58;19.38;;;33.40;80.60;;;;;;4955872;29;20193;-56
2021/04/22 12:33:09;;;;;;;17.70;15.68;;;33.40;81.30;;;;;;4993403;28;20204;-55
2021/04/22 12:35:40;;;;;;;12.43;11.00;;;33.40;81.10;;;;;;4996448;28;20196;-53
2021/04/22 12:38:21;;;;;;;10.25;8.65;;;33.30;80.90;;;;;;4995081;28;20239;-50
2021/04/22 12:40:58;;;;;;;7.72;7.03;;;33.30;81.60;;;;;;4996339;28;20291;-56
2021/04/22 12:43:31;;;;;;;8.13;7.43;;;33.20;82.40;;;;;;4993836;28;20204;-53
2021/04/22 12:46:07;;;;;;;7.70;6.90;;;33.20;81.50;;;;;;4995381;28;20214;-54
2021/04/22 12:48:39;;;;;;;7.22;6.63;;;33.10;82.00;;;;;;4995092;28;20262;-55
2021/04/22 12:51:10;;;;;;;8.15;7.47;;;33.10;81.80;;;;;;4994820;28;20205;-55
2021/04/22 12:53:41;;;;;;;8.00;7.30;;;33.00;81.90;;;;;;4995043;28;20207;-55
2021/04/22 12:56:13;;;;;;;8.18;7.40;;;33.00;82.10;;;;;;4995480;28;20212;-55
2021/04/22 12:58:45;;;;;;;8.40;7.63;;;33.00;82.30;;;;;;4995158;28;20220;-49
2021/04/22 13:01:19;;;;;;;8.68;7.97;;;32.90;82.50;;;;;;4995375;28;20707;-53
2021/04/22 13:03:51;;;;;;;8.75;7.85;;;32.90;82.70;;;;;;4994948;28;20244;-53
2021/04/22 13:06:22;;;;;;;8.52;7.68;;;32.90;83.00;;;;;;4994606;28;20219;-53
2021/04/22 13:08:54;;;;;;;9.80;8.90;;;32.80;83.00;;;;;;4995589;28;20223;-52
2021/04/22 13:11:25;;;;;;;7.97;7.18;;;32.80;83.20;;;;;;4995427;28;20271;-51